sensor_id;sensor_type;location;lat;lon;timestamp;pressure;altitude;pressure_sealevel;temperature;humidity
31761;BME280;18335;51.486;7.562;2023-05-21T00:02:04;100412.63;;;11.84;100.00
31761;BME280;18335;51.486;7.562;2023-05-21T00:04:35;100408.03;;;11.77;100.00
31761;BME280;18335;51.486;7.562;2023-05-21T00:07:04;100407.50;;;11.73;100.00
31761;BME280;18335;51.486;7.562;2023-05-21T00:09:33;100411.72;;;11.68;100.00
31761;BME280;18335;51.486;7.562;2023-05-21T00:11:59;100405.38;;;11.59;100.00
31761;BME280;18335;51.486;7.562;2023-05-21T00:14:26;100401.13;;;11.64;100.00
31761;BME280;18335;51.486;7.562;2023-05-21T00:16:53;100400.75;;;11.59;100.00
31761;BME280;18335;51.486;7.562;2023-05-21T00:19:19;100399.91;;;11.59;100.00
31761;BME280;18335;51.486;7.562;2023-05-21T00:21:47;100401.94;;;11.41;100.00
31761;BME280;18335;51.486;7.562;2023-05-21T00:24:14;100399.56;;;11.38;100.00
31761;BME280;18335;51.486;7.562;2023-05-21T00:26:41;100403.31;;;11.45;100.00
31761;BME280;18335;51.486;7.562;2023-05-21T00:29:08;100389.25;;;11.24;100.00
31761;BME280;18335;51.486;7.562;2023-05-21T00:31:34;100386.91;;;11.53;100.00
31761;BME280;18335;51.486;7.562;2023-05-21T00:34:01;100386.56;;;11.48;100.00
31761;BME280;18335;51.486;7.562;2023-05-21T00:36:28;100377.22;;;11.58;100.00
31761;BME280;18335;51.486;7.562;2023-05-21T00:38:56;100376.66;;;11.39;100.00
31761;BME280;18335;51.486;7.562;2023-05-21T00:41:23;100373.59;;;11.42;100.00
31761;BME280;18335;51.486;7.562;2023-05-21T00:43:50;100379.75;;;11.44;100.00
31761;BME280;18335;51.486;7.562;2023-05-21T00:46:20;100379.91;;;11.34;100.00
31761;BME280;18335;51.486;7.562;2023-05-21T00:48:48;100381.44;;;11.45;100.00
31761;BME280;18335;51.486;7.562;2023-05-21T00:51:16;100372.22;;;11.46;100.00
31761;BME280;18335;51.486;7.562;2023-05-21T00:53:48;100369.84;;;11.35;100.00
31761;BME280;18335;51.486;7.562;2023-05-21T00:56:17;100372.53;;;11.27;100.00
31761;BME280;18335;51.486;7.562;2023-05-21T00:58:45;100377.31;;;11.33;100.00
31761;BME280;18335;51.486;7.562;2023-05-21T01:01:13;100371.19;;;11.31;100.00
31761;BME280;18335;51.486;7.562;2023-05-21T01:03:40;100363.66;;;11.33;100.00
31761;BME280;18335;51.486;7.562;2023-05-21T01:06:08;100366.38;;;11.33;100.00
31761;BME280;18335;51.486;7.562;2023-05-21T01:08:36;100366.19;;;11.26;100.00
31761;BME280;18335;51.486;7.562;2023-05-21T01:11:06;100366.72;;;11.22;100.00
31761;BME280;18335;51.486;7.562;2023-05-21T01:13:38;100365.38;;;11.26;100.00
31761;BME280;18335;51.486;7.562;2023-05-21T01:16:05;100362.06;;;11.14;100.00
31761;BME280;18335;51.486;7.562;2023-05-21T01:18:33;100361.06;;;11.15;100.00
31761;BME280;18335;51.486;7.562;2023-05-21T01:21:01;100353.06;;;11.22;100.00
31761;BME280;18335;51.486;7.562;2023-05-21T01:23:30;100357.50;;;11.31;100.00
31761;BME280;18335;51.486;7.562;2023-05-21T01:25:57;100363.66;;;11.25;100.00
31761;BME280;18335;51.486;7.562;2023-05-21T01:28:24;100362.94;;;11.15;100.00
31761;BME280;18335;51.486;7.562;2023-05-21T01:30:51;100358.50;;;11.14;100.00
31761;BME280;18335;51.486;7.562;2023-05-21T01:33:23;100350.66;;;11.19;100.00
31761;BME280;18335;51.486;7.562;2023-05-21T01:36:01;100348.94;;;11.09;100.00
31761;BME280;18335;51.486;7.562;2023-05-21T01:38:36;100358.19;;;11.17;100.00
31761;BME280;18335;51.486;7.562;2023-05-21T01:41:07;100343.00;;;11.22;100.00
31761;BME280;18335;51.486;7.562;2023-05-21T01:43:37;100352.88;;;11.23;100.00
31761;BME280;18335;51.486;7.562;2023-05-21T01:46:06;100351.34;;;11.21;100.00
31761;BME280;18335;51.486;7.562;2023-05-21T01:48:33;100352.16;;;11.05;100.00
31761;BME280;18335;51.486;7.562;2023-05-21T01:51:02;100349.84;;;11.34;100.00
31761;BME280;18335;51.486;7.562;2023-05-21T01:53:30;100345.06;;;11.28;100.00
31761;BME280;18335;51.486;7.562;2023-05-21T01:55:57;100348.94;;;11.18;100.00
31761;BME280;18335;51.486;7.562;2023-05-21T01:58:25;100345.19;;;11.10;100.00
31761;BME280;18335;51.486;7.562;2023-05-21T02:00:52;100339.84;;;11.01;100.00
31761;BME280;18335;51.486;7.562;2023-05-21T02:03:19;100342.06;;;10.97;100.00
31761;BME280;18335;51.486;7.562;2023-05-21T02:05:47;100341.25;;;11.05;100.00
31761;BME280;18335;51.486;7.562;2023-05-21T02:08:16;100339.53;;;11.04;100.00
31761;BME280;18335;51.486;7.562;2023-05-21T02:10:45;100337.94;;;10.93;100.00
31761;BME280;18335;51.486;7.562;2023-05-21T02:13:12;100334.00;;;10.88;100.00
31761;BME280;18335;51.486;7.562;2023-05-21T02:15:40;100341.00;;;10.90;100.00
31761;BME280;18335;51.486;7.562;2023-05-21T02:18:07;100331.06;;;10.81;100.00
31761;BME280;18335;51.486;7.562;2023-05-21T02:20:33;100332.81;;;10.90;100.00
31761;BME280;18335;51.486;7.562;2023-05-21T02:23:00;100326.69;;;10.96;100.00
31761;BME280;18335;51.486;7.562;2023-05-21T02:25:27;100328.59;;;10.96;100.00
31761;BME280;18335;51.486;7.562;2023-05-21T02:27:55;100321.41;;;10.87;100.00
31761;BME280;18335;51.486;7.562;2023-05-21T02:30:21;100331.97;;;10.90;100.00
31761;BME280;18335;51.486;7.562;2023-05-21T02:32:48;100332.47;;;10.93;100.00
31761;BME280;18335;51.486;7.562;2023-05-21T02:35:15;100335.22;;;10.93;100.00
31761;BME280;18335;51.486;7.562;2023-05-21T02:37:42;100330.59;;;10.94;100.00
31761;BME280;18335;51.486;7.562;2023-05-21T02:40:09;100325.78;;;10.80;100.00
31761;BME280;18335;51.486;7.562;2023-05-21T02:42:37;100326.00;;;10.86;100.00
31761;BME280;18335;51.486;7.562;2023-05-21T02:45:08;100324.28;;;10.85;100.00
31761;BME280;18335;51.486;7.562;2023-05-21T02:47:36;100339.75;;;10.69;100.00
31761;BME280;18335;51.486;7.562;2023-05-21T02:50:07;100329.69;;;10.69;100.00
31761;BME280;18335;51.486;7.562;2023-05-21T02:52:39;100333.13;;;10.79;100.00
31761;BME280;18335;51.486;7.562;2023-05-21T02:55:07;100322.88;;;10.81;100.00
31761;BME280;18335;51.486;7.562;2023-05-21T02:57:34;100333.31;;;10.78;100.00
31761;BME280;18335;51.486;7.562;2023-05-21T03:00:03;100330.41;;;10.79;100.00
31761;BME280;18335;51.486;7.562;2023-05-21T03:02:32;100331.38;;;10.70;100.00
31761;BME280;18335;51.486;7.562;2023-05-21T03:04:59;100321.66;;;10.76;100.00
31761;BME280;18335;51.486;7.562;2023-05-21T03:07:26;100323.94;;;10.80;100.00
31761;BME280;18335;51.486;7.562;2023-05-21T03:09:53;100325.94;;;10.78;100.00
31761;BME280;18335;51.486;7.562;2023-05-21T03:12:29;100332.03;;;10.64;100.00
31761;BME280;18335;51.486;7.562;2023-05-21T03:14:57;100328.28;;;10.65;100.00
31761;BME280;18335;51.486;7.562;2023-05-21T03:17:24;100331.38;;;10.70;100.00
31761;BME280;18335;51.486;7.562;2023-05-21T03:19:51;100325.25;;;10.68;100.00
31761;BME280;18335;51.486;7.562;2023-05-21T03:22:18;100319.09;;;10.66;100.00
31761;BME280;18335;51.486;7.562;2023-05-21T03:24:45;100321.81;;;10.66;100.00
31761;BME280;18335;51.486;7.562;2023-05-21T03:27:13;100321.13;;;10.64;100.00
31761;BME280;18335;51.486;7.562;2023-05-21T03:29:43;100325.38;;;10.67;100.00
31761;BME280;18335;51.486;7.562;2023-05-21T03:32:12;100320.75;;;10.59;100.00
31761;BME280;18335;51.486;7.562;2023-05-21T03:34:39;100322.47;;;10.60;100.00
31761;BME280;18335;51.486;7.562;2023-05-21T03:37:05;100319.13;;;10.74;100.00
31761;BME280;18335;51.486;7.562;2023-05-21T03:39:33;100334.44;;;10.67;100.00
31761;BME280;18335;51.486;7.562;2023-05-21T03:41:59;100327.97;;;10.68;100.00
31761;BME280;18335;51.486;7.562;2023-05-21T03:44:35;100326.03;;;10.61;100.00
31761;BME280;18335;51.486;7.562;2023-05-21T03:47:16;100325.25;;;10.68;100.00
31761;BME280;18335;51.486;7.562;2023-05-21T03:49:43;100318.41;;;10.72;100.00
31761;BME280;18335;51.486;7.562;2023-05-21T03:52:10;100321.53;;;10.77;100.00
31761;BME280;18335;51.486;7.562;2023-05-21T03:54:37;100327.31;;;10.74;100.00
31761;BME280;18335;51.486;7.562;2023-05-21T03:57:06;100310.81;;;10.84;100.00
31761;BME280;18335;51.486;7.562;2023-05-21T03:59:33;100319.53;;;10.95;100.00
31761;BME280;18335;51.486;7.562;2023-05-21T04:02:00;100323.28;;;10.94;100.00
31761;BME280;18335;51.486;7.562;2023-05-21T04:04:28;100324.03;;;10.63;100.00
31761;BME280;18335;51.486;7.562;2023-05-21T04:06:55;100323.28;;;10.94;100.00
31761;BME280;18335;51.486;7.562;2023-05-21T04:09:22;100315.94;;;10.95;100.00
31761;BME280;18335;51.486;7.562;2023-05-21T04:11:51;100327.94;;;11.10;100.00
31761;BME280;18335;51.486;7.562;2023-05-21T04:14:17;100324.28;;;10.85;100.00
31761;BME280;18335;51.486;7.562;2023-05-21T04:16:44;100323.09;;;10.88;100.00
31761;BME280;18335;51.486;7.562;2023-05-21T04:19:13;100319.75;;;11.10;100.00
31761;BME280;18335;51.486;7.562;2023-05-21T04:21:41;100331.34;;;11.12;100.00
31761;BME280;18335;51.486;7.562;2023-05-21T04:24:10;100328.47;;;11.14;100.00
31761;BME280;18335;51.486;7.562;2023-05-21T04:26:57;100324.34;;;11.18;100.00
31761;BME280;18335;51.486;7.562;2023-05-21T04:29:26;100332.25;;;11.29;100.00
31761;BME280;18335;51.486;7.562;2023-05-21T04:31:54;100335.66;;;11.39;100.00
31761;BME280;18335;51.486;7.562;2023-05-21T04:34:22;100336.00;;;11.36;100.00
31761;BME280;18335;51.486;7.562;2023-05-21T04:36:50;100327.47;;;11.39;100.00
31761;BME280;18335;51.486;7.562;2023-05-21T04:39:18;100331.75;;;11.33;100.00
31761;BME280;18335;51.486;7.562;2023-05-21T04:41:44;100332.59;;;11.50;100.00
31761;BME280;18335;51.486;7.562;2023-05-21T04:44:11;100332.63;;;11.66;100.00
31761;BME280;18335;51.486;7.562;2023-05-21T04:46:41;100325.44;;;11.57;100.00
31761;BME280;18335;51.486;7.562;2023-05-21T04:49:10;100337.75;;;11.69;100.00
31761;BME280;18335;51.486;7.562;2023-05-21T04:51:37;100334.34;;;11.83;100.00
31761;BME280;18335;51.486;7.562;2023-05-21T04:54:06;100326.53;;;11.88;100.00
31761;BME280;18335;51.486;7.562;2023-05-21T04:56:33;100330.59;;;11.92;100.00
31761;BME280;18335;51.486;7.562;2023-05-21T04:59:01;100325.81;;;11.94;100.00
31761;BME280;18335;51.486;7.562;2023-05-21T05:01:28;100321.72;;;12.06;100.00
31761;BME280;18335;51.486;7.562;2023-05-21T05:03:56;100322.41;;;12.00;100.00
31761;BME280;18335;51.486;7.562;2023-05-21T05:06:23;100321.16;;;12.27;100.00
31761;BME280;18335;51.486;7.562;2023-05-21T05:08:51;100315.16;;;12.32;100.00
31761;BME280;18335;51.486;7.562;2023-05-21T05:11:21;100320.47;;;12.33;100.00
31761;BME280;18335;51.486;7.562;2023-05-21T05:13:48;100313.59;;;12.37;100.00
31761;BME280;18335;51.486;7.562;2023-05-21T05:16:15;100317.81;;;12.56;100.00
31761;BME280;18335;51.486;7.562;2023-05-21T05:18:43;100311.84;;;12.52;100.00
31761;BME280;18335;51.486;7.562;2023-05-21T05:21:10;100311.78;;;12.68;100.00
31761;BME280;18335;51.486;7.562;2023-05-21T05:23:37;100304.25;;;12.70;100.00
31761;BME280;18335;51.486;7.562;2023-05-21T05:26:06;100306.22;;;12.85;100.00
31761;BME280;18335;51.486;7.562;2023-05-21T05:28:34;100304.38;;;12.77;100.00
31761;BME280;18335;51.486;7.562;2023-05-21T05:31:01;100303.81;;;12.90;100.00
31761;BME280;18335;51.486;7.562;2023-05-21T05:33:28;100309.06;;;12.99;100.00
31761;BME280;18335;51.486;7.562;2023-05-21T05:35:55;100322.91;;;13.14;100.00
31761;BME280;18335;51.486;7.562;2023-05-21T05:38:22;100316.06;;;13.10;100.00
31761;BME280;18335;51.486;7.562;2023-05-21T05:40:48;100313.41;;;13.24;100.00
31761;BME280;18335;51.486;7.562;2023-05-21T05:43:15;100307.56;;;13.27;100.00
31761;BME280;18335;51.486;7.562;2023-05-21T05:45:43;100311.03;;;13.21;100.00
31761;BME280;18335;51.486;7.562;2023-05-21T05:48:13;100316.50;;;13.21;100.00
31761;BME280;18335;51.486;7.562;2023-05-21T05:50:41;100305.75;;;13.43;100.00
31761;BME280;18335;51.486;7.562;2023-05-21T05:53:08;100296.66;;;13.19;100.00
31761;BME280;18335;51.486;7.562;2023-05-21T05:55:37;100307.19;;;13.30;100.00
31761;BME280;18335;51.486;7.562;2023-05-21T05:58:04;100307.47;;;13.44;100.00
31761;BME280;18335;51.486;7.562;2023-05-21T06:00:37;100307.75;;;13.49;100.00
31761;BME280;18335;51.486;7.562;2023-05-21T06:03:05;100305.66;;;13.51;100.00
31761;BME280;18335;51.486;7.562;2023-05-21T06:05:32;100304.78;;;13.58;100.00
31761;BME280;18335;51.486;7.562;2023-05-21T06:07:59;100311.16;;;13.51;100.00
31761;BME280;18335;51.486;7.562;2023-05-21T06:10:25;100314.56;;;13.75;100.00
31761;BME280;18335;51.486;7.562;2023-05-21T06:12:52;100308.88;;;13.77;100.00
31761;BME280;18335;51.486;7.562;2023-05-21T06:15:19;100310.22;;;13.81;100.00
31761;BME280;18335;51.486;7.562;2023-05-21T06:17:46;100304.50;;;13.68;100.00
31761;BME280;18335;51.486;7.562;2023-05-21T06:20:15;100302.97;;;13.65;100.00
31761;BME280;18335;51.486;7.562;2023-05-21T06:22:42;100305.72;;;13.88;100.00
31761;BME280;18335;51.486;7.562;2023-05-21T06:25:09;100307.03;;;13.92;100.00
31761;BME280;18335;51.486;7.562;2023-05-21T06:27:36;100307.03;;;13.92;100.00
31761;BME280;18335;51.486;7.562;2023-05-21T06:30:07;100303.69;;;14.19;100.00
31761;BME280;18335;51.486;7.562;2023-05-21T06:32:34;100302.53;;;13.99;100.00
31761;BME280;18335;51.486;7.562;2023-05-21T06:35:01;100303.50;;;14.21;100.00
31761;BME280;18335;51.486;7.562;2023-05-21T06:37:29;100308.72;;;14.30;100.00
31761;BME280;18335;51.486;7.562;2023-05-21T06:39:56;100294.94;;;14.38;100.00
31761;BME280;18335;51.486;7.562;2023-05-21T06:42:22;100301.66;;;14.51;100.00
31761;BME280;18335;51.486;7.562;2023-05-21T06:45:12;100291.06;;;14.48;100.00
31761;BME280;18335;51.486;7.562;2023-05-21T06:47:42;100283.56;;;14.56;100.00
31761;BME280;18335;51.486;7.562;2023-05-21T06:50:09;100291.59;;;14.58;100.00
31761;BME280;18335;51.486;7.562;2023-05-21T06:52:37;100283.53;;;14.85;100.00
31761;BME280;18335;51.486;7.562;2023-05-21T06:55:05;100285.88;;;15.03;100.00
31761;BME280;18335;51.486;7.562;2023-05-21T06:57:52;100298.31;;;14.70;100.00
31761;BME280;18335;51.486;7.562;2023-05-21T07:00:19;100286.06;;;14.51;100.00
31761;BME280;18335;51.486;7.562;2023-05-21T07:02:47;100289.56;;;14.60;100.00
31761;BME280;18335;51.486;7.562;2023-05-21T07:05:14;100274.56;;;14.77;100.00
31761;BME280;18335;51.486;7.562;2023-05-21T07:07:42;100269.09;;;14.62;100.00
31761;BME280;18335;51.486;7.562;2023-05-21T07:10:09;100273.13;;;14.81;100.00
31761;BME280;18335;51.486;7.562;2023-05-21T07:12:37;100277.84;;;15.02;100.00
31761;BME280;18335;51.486;7.562;2023-05-21T07:15:06;100276.72;;;14.96;100.00
31761;BME280;18335;51.486;7.562;2023-05-21T07:17:33;100276.72;;;15.17;100.00
31761;BME280;18335;51.486;7.562;2023-05-21T07:20:01;100281.06;;;15.26;100.00
31761;BME280;18335;51.486;7.562;2023-05-21T07:22:29;100265.09;;;15.15;100.00
31761;BME280;18335;51.486;7.562;2023-05-21T07:24:57;100266.13;;;15.35;100.00
31761;BME280;18335;51.486;7.562;2023-05-21T07:27:24;100262.19;;;15.59;100.00
31761;BME280;18335;51.486;7.562;2023-05-21T07:29:51;100267.00;;;15.36;100.00
31761;BME280;18335;51.486;7.562;2023-05-21T07:32:19;100277.53;;;15.32;100.00
31761;BME280;18335;51.486;7.562;2023-05-21T07:34:47;100269.84;;;15.64;100.00
31761;BME280;18335;51.486;7.562;2023-05-21T07:37:14;100275.56;;;15.90;100.00
31761;BME280;18335;51.486;7.562;2023-05-21T07:39:40;100273.63;;;15.84;100.00
31761;BME280;18335;51.486;7.562;2023-05-21T07:42:09;100275.50;;;15.83;100.00
31761;BME280;18335;51.486;7.562;2023-05-21T07:44:36;100275.09;;;15.80;100.00
31761;BME280;18335;51.486;7.562;2023-05-21T07:47:03;100278.66;;;15.80;100.00
31761;BME280;18335;51.486;7.562;2023-05-21T07:49:30;100280.13;;;16.04;100.00
31761;BME280;18335;51.486;7.562;2023-05-21T07:51:57;100280.75;;;16.27;100.00
31761;BME280;18335;51.486;7.562;2023-05-21T07:54:24;100281.28;;;16.44;100.00
31761;BME280;18335;51.486;7.562;2023-05-21T07:56:51;100276.13;;;16.34;100.00
31761;BME280;18335;51.486;7.562;2023-05-21T07:59:39;100282.13;;;16.44;100.00
31761;BME280;18335;51.486;7.562;2023-05-21T08:02:06;100282.53;;;16.41;100.00
31761;BME280;18335;51.486;7.562;2023-05-21T08:04:34;100281.44;;;16.36;100.00
31761;BME280;18335;51.486;7.562;2023-05-21T08:07:01;100282.31;;;16.43;100.00
31761;BME280;18335;51.486;7.562;2023-05-21T08:09:28;100281.78;;;16.26;100.00
31761;BME280;18335;51.486;7.562;2023-05-21T08:11:57;100283.78;;;16.39;100.00
31761;BME280;18335;51.486;7.562;2023-05-21T08:14:23;100283.50;;;16.27;100.00
31761;BME280;18335;51.486;7.562;2023-05-21T08:16:51;100283.78;;;16.39;100.00
31761;BME280;18335;51.486;7.562;2023-05-21T08:19:19;100282.34;;;16.49;100.00
31761;BME280;18335;51.486;7.562;2023-05-21T08:21:46;100282.81;;;16.87;100.00
31761;BME280;18335;51.486;7.562;2023-05-21T08:24:13;100278.41;;;17.06;100.00
31761;BME280;18335;51.486;7.562;2023-05-21T08:26:40;100280.22;;;16.79;100.00
31761;BME280;18335;51.486;7.562;2023-05-21T08:29:09;100274.16;;;16.90;100.00
31761;BME280;18335;51.486;7.562;2023-05-21T08:31:35;100270.06;;;16.80;100.00
31761;BME280;18335;51.486;7.562;2023-05-21T08:34:06;100278.47;;;17.19;100.00
31761;BME280;18335;51.486;7.562;2023-05-21T08:36:40;100277.88;;;17.30;100.00
31761;BME280;18335;51.486;7.562;2023-05-21T08:39:19;100277.03;;;17.23;100.00
31761;BME280;18335;51.486;7.562;2023-05-21T08:41:48;100280.88;;;17.48;100.00
31761;BME280;18335;51.486;7.562;2023-05-21T08:44:19;100289.03;;;17.89;100.00
31761;BME280;18335;51.486;7.562;2023-05-21T08:46:48;100286.69;;;17.86;100.00
31761;BME280;18335;51.486;7.562;2023-05-21T08:49:21;100282.69;;;17.89;100.00
31761;BME280;18335;51.486;7.562;2023-05-21T08:51:52;100278.41;;;18.12;100.00
31761;BME280;18335;51.486;7.562;2023-05-21T08:54:19;100279.25;;;18.26;100.00
31761;BME280;18335;51.486;7.562;2023-05-21T08:56:46;100279.66;;;18.30;100.00
31761;BME280;18335;51.486;7.562;2023-05-21T08:59:15;100273.97;;;17.92;100.00
31761;BME280;18335;51.486;7.562;2023-05-21T09:01:44;100265.19;;;18.34;100.00
31761;BME280;18335;51.486;7.562;2023-05-21T09:04:21;100266.94;;;18.09;100.00
31761;BME280;18335;51.486;7.562;2023-05-21T09:06:53;100261.41;;;17.56;100.00
31761;BME280;18335;51.486;7.562;2023-05-21T09:09:46;100264.41;;;17.68;100.00
31761;BME280;18335;51.486;7.562;2023-05-21T09:12:14;100266.94;;;18.09;100.00
31761;BME280;18335;51.486;7.562;2023-05-21T09:14:41;100258.00;;;18.20;100.00
31761;BME280;18335;51.486;7.562;2023-05-21T09:17:15;100249.53;;;18.21;100.00
31761;BME280;18335;51.486;7.562;2023-05-21T09:20:06;100249.47;;;18.54;100.00
31761;BME280;18335;51.486;7.562;2023-05-21T09:22:36;100248.19;;;18.44;100.00
31761;BME280;18335;51.486;7.562;2023-05-21T09:25:05;100254.16;;;18.60;100.00
31761;BME280;18335;51.486;7.562;2023-05-21T09:27:32;100238.63;;;19.04;100.00
31761;BME280;18335;51.486;7.562;2023-05-21T09:30:00;100236.75;;;19.42;100.00
31761;BME280;18335;51.486;7.562;2023-05-21T09:32:28;100233.25;;;19.15;100.00
31761;BME280;18335;51.486;7.562;2023-05-21T09:34:56;100241.03;;;19.31;100.00
31761;BME280;18335;51.486;7.562;2023-05-21T09:37:24;100249.09;;;19.02;100.00
31761;BME280;18335;51.486;7.562;2023-05-21T09:39:52;100248.69;;;19.29;100.00
31761;BME280;18335;51.486;7.562;2023-05-21T09:42:19;100245.88;;;19.05;100.00
31761;BME280;18335;51.486;7.562;2023-05-21T09:44:47;100241.50;;;19.28;100.00
31761;BME280;18335;51.486;7.562;2023-05-21T09:47:18;100233.66;;;19.57;100.00
31761;BME280;18335;51.486;7.562;2023-05-21T09:49:45;100229.34;;;19.67;100.00
31761;BME280;18335;51.486;7.562;2023-05-21T09:52:12;100233.03;;;19.55;100.00
31761;BME280;18335;51.486;7.562;2023-05-21T09:54:41;100233.00;;;19.61;100.00
31761;BME280;18335;51.486;7.562;2023-05-21T09:57:07;100227.47;;;19.61;100.00
31761;BME280;18335;51.486;7.562;2023-05-21T09:59:35;100225.22;;;19.76;100.00
31761;BME280;18335;51.486;7.562;2023-05-21T10:02:02;100224.78;;;19.48;100.00
31761;BME280;18335;51.486;7.562;2023-05-21T10:04:29;100221.97;;;19.17;100.00
31761;BME280;18335;51.486;7.562;2023-05-21T10:06:58;100226.13;;;19.70;100.00
31761;BME280;18335;51.486;7.562;2023-05-21T10:09:27;100217.34;;;19.73;100.00
31761;BME280;18335;51.486;7.562;2023-05-21T10:11:56;100221.63;;;19.69;100.00
31761;BME280;18335;51.486;7.562;2023-05-21T10:14:24;100216.59;;;19.60;100.00
31761;BME280;18335;51.486;7.562;2023-05-21T10:16:53;100218.50;;;19.59;100.00
31761;BME280;18335;51.486;7.562;2023-05-21T10:19:21;100212.44;;;20.00;100.00
31761;BME280;18335;51.486;7.562;2023-05-21T10:21:50;100202.31;;;20.12;100.00
31761;BME280;18335;51.486;7.562;2023-05-21T10:24:17;100211.97;;;20.46;100.00
31761;BME280;18335;51.486;7.562;2023-05-21T10:26:44;100196.44;;;20.63;100.00
31761;BME280;18335;51.486;7.562;2023-05-21T10:29:14;100196.31;;;20.70;100.00
31761;BME280;18335;51.486;7.562;2023-05-21T10:31:42;100192.66;;;20.58;100.00
31761;BME280;18335;51.486;7.562;2023-05-21T10:34:13;100188.25;;;20.68;100.00
31761;BME280;18335;51.486;7.562;2023-05-21T10:36:42;100182.41;;;20.58;100.00
31761;BME280;18335;51.486;7.562;2023-05-21T10:39:11;100191.75;;;20.64;100.00
31761;BME280;18335;51.486;7.562;2023-05-21T10:41:45;100188.25;;;20.68;100.00
31761;BME280;18335;51.486;7.562;2023-05-21T10:44:21;100186.72;;;20.72;100.00
31761;BME280;18335;51.486;7.562;2023-05-21T10:50:20;100184.75;;;21.09;100.00
31761;BME280;18335;51.486;7.562;2023-05-21T10:53:01;100180.53;;;20.70;100.00
31761;BME280;18335;51.486;7.562;2023-05-21T10:55:41;100182.31;;;20.65;100.00
31761;BME280;18335;51.486;7.562;2023-05-21T10:58:27;100176.22;;;20.92;100.00
31761;BME280;18335;51.486;7.562;2023-05-21T11:01:00;100186.81;;;21.43;100.00
31761;BME280;18335;51.486;7.562;2023-05-21T11:03:28;100180.25;;;20.78;100.00
31761;BME280;18335;51.486;7.562;2023-05-21T11:05:56;100183.72;;;21.22;100.00
31761;BME280;18335;51.486;7.562;2023-05-21T11:08:25;100177.09;;;21.23;100.00
31761;BME280;18335;51.486;7.562;2023-05-21T11:10:55;100181.13;;;21.09;100.00
31761;BME280;18335;51.486;7.562;2023-05-21T11:13:24;100173.84;;;21.08;100.00
31761;BME280;18335;51.486;7.562;2023-05-21T11:16:13;100174.94;;;21.07;100.00
31761;BME280;18335;51.486;7.562;2023-05-21T11:18:56;100167.88;;;20.92;100.00
31761;BME280;18335;51.486;7.562;2023-05-21T11:21:27;100172.19;;;21.48;100.00
31761;BME280;18335;51.486;7.562;2023-05-21T11:23:58;100159.81;;;21.74;100.00
31761;BME280;18335;51.486;7.562;2023-05-21T11:26:26;100162.28;;;21.40;100.00
31761;BME280;18335;51.486;7.562;2023-05-21T11:29:05;100167.94;;;21.34;100.00
31761;BME280;18335;51.486;7.562;2023-05-21T11:31:34;100156.13;;;21.91;100.00
31761;BME280;18335;51.486;7.562;2023-05-21T11:34:13;100154.59;;;21.66;100.00
31761;BME280;18335;51.486;7.562;2023-05-21T11:36:43;100155.44;;;21.55;100.00
31761;BME280;18335;51.486;7.562;2023-05-21T11:39:12;100155.25;;;21.91;100.00
31761;BME280;18335;51.486;7.562;2023-05-21T11:41:54;100150.88;;;21.19;100.00
31761;BME280;18335;51.486;7.562;2023-05-21T11:44:37;100147.47;;;21.58;100.00
31761;BME280;18335;51.486;7.562;2023-05-21T11:47:07;100155.28;;;21.38;100.00
31761;BME280;18335;51.486;7.562;2023-05-21T11:49:35;100163.44;;;21.74;100.00
31761;BME280;18335;51.486;7.562;2023-05-21T11:52:03;100150.63;;;21.73;100.00
31761;BME280;18335;51.486;7.562;2023-05-21T11:54:31;100157.81;;;21.39;100.00
31761;BME280;18335;51.486;7.562;2023-05-21T11:57:05;100148.44;;;21.75;100.00
31761;BME280;18335;51.486;7.562;2023-05-21T11:59:32;100149.78;;;21.84;100.00
31761;BME280;18335;51.486;7.562;2023-05-21T12:01:59;100152.94;;;21.76;100.00
31761;BME280;18335;51.486;7.562;2023-05-21T12:04:30;100158.69;;;21.63;100.00
31761;BME280;18335;51.486;7.562;2023-05-21T12:06:56;100150.84;;;21.72;100.00
31761;BME280;18335;51.486;7.562;2023-05-21T12:09:23;100150.03;;;21.71;100.00
31761;BME280;18335;51.486;7.562;2023-05-21T12:11:50;100147.50;;;22.04;100.00
31761;BME280;18335;51.486;7.562;2023-05-21T12:14:17;100139.19;;;22.04;100.00
31761;BME280;18335;51.486;7.562;2023-05-21T12:16:43;100134.50;;;22.68;100.00
31761;BME280;18335;51.486;7.562;2023-05-21T12:19:10;100137.09;;;22.86;100.00
31761;BME280;18335;51.486;7.562;2023-05-21T12:21:39;100133.34;;;22.41;100.00
31761;BME280;18335;51.486;7.562;2023-05-21T12:24:07;100128.69;;;22.58;100.00
31761;BME280;18335;51.486;7.562;2023-05-21T12:26:34;100126.28;;;22.50;100.00
31761;BME280;18335;51.486;7.562;2023-05-21T12:29:01;100129.50;;;22.82;100.00
31761;BME280;18335;51.486;7.562;2023-05-21T12:31:30;100130.41;;;23.15;100.00
31761;BME280;18335;51.486;7.562;2023-05-21T12:33:57;100126.19;;;22.96;100.00
31761;BME280;18335;51.486;7.562;2023-05-21T12:36:26;100125.91;;;22.58;100.00
31761;BME280;18335;51.486;7.562;2023-05-21T12:38:56;100134.41;;;23.20;100.00
31761;BME280;18335;51.486;7.562;2023-05-21T12:41:22;100128.28;;;23.51;100.00
31761;BME280;18335;51.486;7.562;2023-05-21T12:43:50;100134.34;;;23.31;100.00
31761;BME280;18335;51.486;7.562;2023-05-21T12:46:17;100133.34;;;23.54;100.00
31761;BME280;18335;51.486;7.562;2023-05-21T12:48:48;100145.13;;;23.28;100.00
31761;BME280;18335;51.486;7.562;2023-05-21T12:51:16;100137.00;;;22.81;100.00
31761;BME280;18335;51.486;7.562;2023-05-21T12:53:43;100128.75;;;23.14;100.00